Time;durP1;ratioP1;P1;durP2;ratioP2;P2;SDS_P1;SDS_P2;PMS_P1;PMS_P2;Temp;Humidity;BMP_temperature;BMP_pressure;BME280_temperature;BME280_humidity;BME280_pressure;Samples;Min_cycle;Max_cycle;Signal;HPM_P1;HPM_P2
2022/08/22 00:00:16;;;;;;;10.75;5.03;;;;;;;18.56;100.00;93999.88;1675226;85;20972;-49
2022/08/22 00:02:59;;;;;;;7.42;4.53;;;;;;;18.52;100.00;94009.77;1683866;83;21154;-48
2022/08/22 00:06:02;;;;;;;6.95;5.03;;;;;;;18.50;100.00;94013.06;1684025;83;21057;-47
2022/08/22 00:09:04;;;;;;;8.40;5.25;;;;;;;18.51;100.00;94010.42;1684832;83;21006;-48
2022/08/22 00:11:47;;;;;;;11.57;5.15;;;;;;;18.53;100.00;94002.92;1678447;83;21116;-48
2022/08/22 00:14:36;;;;;;;6.87;5.50;;;;;;;18.54;100.00;94002.42;1673463;85;20960;-48
2022/08/22 00:17:36;;;;;;;5.50;4.65;;;;;;;18.51;100.00;94002.06;1677226;85;21304;-49
2022/08/22 00:20:12;;;;;;;7.15;4.33;;;;;;;18.53;100.00;94002.30;1649617;85;21433;-47
2022/08/22 00:23:06;;;;;;;4.22;3.75;;;;;;;18.51;100.00;93994.33;1649912;86;21060;-48
2022/08/22 00:25:57;;;;;;;4.37;3.98;;;;;;;18.52;100.00;93990.27;1669727;85;21042;-48
2022/08/22 00:28:48;;;;;;;4.30;3.85;;;;;;;18.53;100.00;93991.78;1681010;85;21031;-48
2022/08/22 00:31:30;;;;;;;4.47;3.98;;;;;;;18.52;100.00;93998.62;1682319;85;21312;-48
2022/08/22 00:34:24;;;;;;;5.00;4.20;;;;;;;18.51;100.00;93996.49;1683752;85;21046;-49
2022/08/22 00:37:03;;;;;;;6.83;4.78;;;;;;;18.54;100.00;94002.42;1680223;85;21521;-49
2022/08/22 00:39:44;;;;;;;8.45;4.28;;;;;;;18.58;100.00;94002.89;1680642;83;21549;-48
2022/08/22 00:42:47;;;;;;;4.33;3.73;;;;;;;18.54;100.00;94008.61;1680736;85;20955;-48
2022/08/22 00:45:46;;;;;;;6.83;3.90;;;;;;;18.50;100.00;94017.23;1684481;85;21916;-48
2022/08/22 00:48:46;;;;;;;3.87;3.47;;;;;;;18.47;100.00;94016.88;1680983;84;20971;-48
2022/08/22 00:51:59;;;;;;;6.30;3.65;;;;;;;18.45;100.00;94018.03;1673644;85;20986;-48
2022/08/22 00:54:43;;;;;;;7.40;3.90;;;;;;;18.42;100.00;94019.06;1682983;83;20974;-47
2022/08/22 00:57:28;;;;;;;6.80;4.15;;;;;;;18.46;100.00;94023.72;1681502;85;21071;-47
2022/08/22 01:00:16;;;;;;;6.35;4.47;;;;;;;18.47;100.00;94025.23;1683404;85;21810;-47
2022/08/22 01:02:53;;;;;;;7.08;3.85;;;;;;;18.45;100.00;94029.17;1682964;85;21118;-49
2022/08/22 01:05:29;;;;;;;5.60;4.12;;;;;;;18.41;100.00;94028.70;1683990;83;21002;-47
2022/08/22 01:08:17;;;;;;;8.30;4.78;;;;;;;18.38;100.00;94025.55;1678434;85;21061;-47
2022/08/22 01:11:33;;;;;;;7.67;5.40;;;;;;;18.37;100.00;94033.02;1679103;85;21531;-49
2022/08/22 01:14:39;;;;;;;7.25;4.87;;;;;;;18.36;100.00;94045.43;1674183;84;21149;-51
2022/08/22 01:17:46;;;;;;;8.93;5.25;;;;;;;18.42;100.00;94045.53;1670589;84;21082;-47
2022/08/22 01:21:01;;;;;;;5.08;4.58;;;;;;;18.46;100.00;94037.66;1672418;84;21459;-47
2022/08/22 01:23:56;;;;;;;7.30;4.85;;;;;;;18.44;100.00;94031.10;1680314;83;21015;-47
2022/08/22 01:27:00;;;;;;;6.33;4.67;;;;;;;18.41;100.00;94032.11;1682329;84;21570;-47
2022/08/22 01:29:56;;;;;;;8.65;4.60;;;;;;;18.47;100.00;94038.42;1670272;83;21213;-47
2022/08/22 01:32:55;;;;;;;5.72;4.25;;;;;;;18.50;100.00;94053.45;1659135;84;21024;-47
2022/08/22 01:35:43;;;;;;;6.65;5.45;;;;;;;18.53;100.00;94042.70;1656069;84;21560;-47
2022/08/22 01:38:45;;;;;;;7.78;5.97;;;;;;;18.55;100.00;94045.72;1665444;85;21098;-47
2022/08/22 01:41:27;;;;;;;11.83;5.47;;;;;;;18.59;100.00;94042.02;1665965;85;26908;-47
2022/08/22 01:44:21;;;;;;;7.25;5.28;;;;;;;18.64;100.00;94041.88;1660119;85;21259;-47
2022/08/22 01:47:12;;;;;;;8.53;4.78;;;;;;;18.68;100.00;94045.13;1627389;87;21075;-49
2022/08/22 01:49:54;;;;;;;8.85;6.10;;;;;;;18.65;100.00;94044.12;1619114;88;20979;-48
2022/08/22 01:52:48;;;;;;;9.75;5.75;;;;;;;18.65;100.00;94038.55;1688264;84;21657;-48
2022/08/22 01:55:35;;;;;;;13.83;6.00;;;;;;;18.62;100.00;94037.45;1666509;85;21126;-48
2022/08/22 01:58:14;;;;;;;7.30;5.45;;;;;;;18.56;100.00;94040.27;1661762;85;21202;-47
2022/08/22 02:00:59;;;;;;;5.65;4.83;;;;;;;18.57;100.00;94038.99;1656034;84;20979;-49
2022/08/22 02:03:43;;;;;;;8.55;5.85;;;;;;;18.61;100.00;94038.08;1673050;83;21118;-48
2022/08/22 02:06:16;;;;;;;7.75;5.75;;;;;;;18.61;100.00;94033.89;1680661;84;21105;-48
2022/08/22 02:08:55;;;;;;;8.00;5.35;;;;;;;18.59;100.00;94035.05;1670268;84;21019;-47
2022/08/22 02:11:57;;;;;;;6.30;5.08;;;;;;;18.56;100.00;94043.05;1682404;84;21262;-48
2022/08/22 02:14:36;;;;;;;6.15;5.40;;;;;;;18.61;100.00;94040.13;1664318;83;20959;-47
2022/08/22 02:17:24;;;;;;;8.65;6.47;;;;;;;18.59;100.00;94037.84;1673082;84;21026;-47
2022/08/22 02:19:59;;;;;;;8.85;6.22;;;;;;;18.57;100.00;94035.44;1652105;84;21153;-48
2022/08/22 02:23:02;;;;;;;10.45;6.40;;;;;;;18.58;100.00;94040.51;1666921;84;21015;-48
2022/08/22 02:25:55;;;;;;;6.77;5.80;;;;;;;18.57;100.00;94044.56;1679990;83;21256;-48
2022/08/22 02:28:39;;;;;;;8.08;6.10;;;;;;;18.54;100.00;94038.64;1677193;85;21031;-48
2022/08/22 02:31:15;;;;;;;9.68;7.62;;;;;;;18.52;100.00;94035.61;1680968;83;21215;-48
2022/08/22 02:33:51;;;;;;;9.55;7.53;;;;;;;18.44;100.00;94025.53;1676815;84;21070;-48
2022/08/22 02:36:52;;;;;;;7.30;6.20;;;;;;;18.37;100.00;94017.70;1679171;84;21038;-48
2022/08/22 02:39:40;;;;;;;6.83;5.00;;;;;;;18.36;100.00;94022.53;1682900;85;21264;-48
2022/08/22 02:42:25;;;;;;;7.83;5.40;;;;;;;18.34;100.00;94028.48;1654942;85;20954;-50
2022/08/22 02:45:17;;;;;;;8.58;5.50;;;;;;;18.28;100.00;94032.69;1678744;83;21065;-48
2022/08/22 02:48:34;;;;;;;7.55;6.12;;;;;;;18.22;100.00;94034.72;1674533;84;21031;-48
2022/08/22 02:51:28;;;;;;;8.15;6.85;;;;;;;18.15;100.00;94031.70;1656196;85;20994;-47
2022/08/22 02:54:23;;;;;;;9.03;6.80;;;;;;;18.12;100.00;94036.92;1684999;85;21876;-48
2022/08/22 02:57:11;;;;;;;7.10;5.97;;;;;;;18.17;100.00;94033.99;1674240;83;21022;-47
2022/08/22 03:00:11;;;;;;;7.70;5.58;;;;;;;18.22;100.00;94027.75;1681829;85;21082;-49
2022/08/22 03:02:59;;;;;;;10.95;6.72;;;;;;;18.25;100.00;94035.08;1662082;84;21098;-50
2022/08/22 03:05:41;;;;;;;8.75;6.75;;;;;;;18.28;100.00;94036.12;1651397;85;21100;-48
2022/08/22 03:08:32;;;;;;;12.58;7.15;;;;;;;18.26;100.00;94036.59;1686171;83;21228;-47
2022/08/22 03:11:26;;;;;;;12.60;7.13;;;;;;;18.26;100.00;94042.81;1682074;84;21031;-48
2022/08/22 03:14:10;;;;;;;8.70;6.83;;;;;;;18.29;100.00;94036.23;1682028;85;20971;-48
2022/08/22 03:17:04;;;;;;;9.15;7.05;;;;;;;18.33;100.00;94038.88;1680770;85;21054;-49
2022/08/22 03:20:02;;;;;;;16.60;8.65;;;;;;;18.41;100.00;94040.46;1665248;84;21077;-48
2022/08/22 03:23:00;;;;;;;11.40;8.33;;;;;;;18.44;100.00;94037.41;1652258;84;21356;-48
2022/08/22 03:26:01;;;;;;;12.37;8.50;;;;;;;18.41;100.00;94041.86;1612629;87;20991;-48
2022/08/22 03:28:37;;;;;;;10.53;7.70;;;;;;;18.47;100.00;94034.98;1691926;83;21018;-48
2022/08/22 03:31:19;;;;;;;15.55;7.70;;;;;;;18.50;100.00;94038.13;1678761;84;21046;-48
2022/08/22 03:34:23;;;;;;;13.03;9.18;;;;;;;18.56;100.00;94037.48;1677746;85;21196;-48
2022/08/22 03:37:06;;;;;;;17.77;11.25;;;;;;;18.56;100.00;94040.27;1686541;84;21822;-48
2022/08/22 03:39:51;;;;;;;15.68;10.13;;;;;;;18.54;100.00;94039.26;1679423;85;21074;-48
2022/08/22 03:42:45;;;;;;;18.42;11.78;;;;;;;18.49;100.00;94036.62;1670355;83;21075;-48
2022/08/22 03:45:21;;;;;;;22.02;14.47;;;;;;;18.46;100.00;94037.66;1684470;84;21041;-48
2022/08/22 03:48:19;;;;;;;23.77;14.07;;;;;;;18.46;100.00;94047.41;1686611;83;21030;-48
2022/08/22 03:51:01;;;;;;;21.48;12.88;;;;;;;18.47;100.00;94046.13;1681198;84;21257;-48
2022/08/22 03:54:06;;;;;;;14.83;9.90;;;;;;;18.44;100.00;94060.34;1691320;83;21065;-48
2022/08/22 03:57:13;;;;;;;13.10;8.35;;;;;;;18.38;100.00;94054.80;1678792;84;20979;-48
2022/08/22 04:00:10;;;;;;;10.98;8.33;;;;;;;18.32;100.00;94057.48;1621626;88;21056;-48
2022/08/22 04:02:51;;;;;;;12.13;7.12;;;;;;;18.32;100.00;94052.66;1579575;89;21148;-49
2022/08/22 04:05:36;;;;;;;10.53;7.78;;;;;;;18.36;100.00;94058.73;1660555;85;21558;-48
2022/08/22 04:08:39;;;;;;;9.18;7.90;;;;;;;18.41;100.00;94060.73;1684382;85;20963;-49
2022/08/22 04:11:21;;;;;;;11.80;7.67;;;;;;;18.50;100.00;94060.42;1677262;85;21039;-48
2022/08/22 04:14:03;;;;;;;10.18;7.17;;;;;;;18.53;100.00;94049.66;1680631;83;21033;-49
2022/08/22 04:17:00;;;;;;;11.43;8.28;;;;;;;18.57;100.00;94046.58;1656720;84;20978;-48
2022/08/22 04:20:08;;;;;;;11.18;7.72;;;;;;;18.60;100.00;94050.50;1663557;84;21432;-49
2022/08/22 04:22:51;;;;;;;16.00;8.18;;;;;;;18.68;100.00;94054.23;1659079;84;20967;-49
2022/08/22 04:25:26;;;;;;;9.85;6.67;;;;;;;18.74;100.00;94052.81;1675081;85;21019;-48
2022/08/22 04:28:24;;;;;;;12.25;6.45;;;;;;;18.84;100.00;94053.38;1680029;85;20982;-48
2022/08/22 04:30:57;;;;;;;9.10;6.75;;;;;;;18.92;100.00;94059.93;1679322;85;21557;-49
2022/08/22 04:33:32;;;;;;;13.22;7.53;;;;;;;18.98;100.00;94060.64;1677824;84;21304;-51
2022/08/22 04:36:21;;;;;;;13.65;8.90;;;;;;;19.06;100.00;94063.00;1669671;83;21183;-51
2022/08/22 04:38:58;;;;;;;7.65;5.97;;;;;;;19.10;100.00;94059.30;1661979;83;21010;-50
2022/08/22 04:41:47;;;;;;;7.70;5.90;;;;;;;19.08;100.00;94058.28;1674600;83;21134;-49
2022/08/22 04:44:28;;;;;;;9.60;6.20;;;;;;;19.05;100.00;94064.91;1685610;84;21065;-51
2022/08/22 04:47:35;;;;;;;9.13;6.60;;;;;;;19.05;100.00;94065.64;1680109;84;21269;-50
2022/08/22 04:50:14;;;;;;;8.83;6.45;;;;;;;19.05;100.00;94071.22;1684367;84;20995;-50
2022/08/22 04:53:10;;;;;;;9.80;6.78;;;;;;;19.12;100.00;94069.28;1667470;84;21086;-49
2022/08/22 04:55:55;;;;;;;8.25;5.20;;;;;;;19.22;100.00;94073.93;1659370;85;21050;-50
2022/08/22 04:58:49;;;;;;;8.83;6.00;;;;;;;19.28;99.51;94067.04;1680791;83;21074;-51
2022/08/22 05:01:28;;;;;;;10.93;6.25;;;;;;;19.35;99.75;94068.52;1684881;84;21229;-51
2022/08/22 05:04:00;;;;;;;9.63;6.37;;;;;;;19.40;98.98;94067.05;1672012;83;21153;-52
2022/08/22 05:06:29;;;;;;;12.37;6.03;;;;;;;19.37;98.48;94082.04;1682796;84;21034;-50
2022/08/22 05:09:00;;;;;;;15.25;6.67;;;;;;;19.38;99.00;94075.83;1683719;83;21447;-49
2022/08/22 05:11:28;;;;;;;6.50;5.87;;;;;;;19.45;99.53;94080.84;1673667;85;21061;-49
2022/08/22 05:14:00;;;;;;;9.78;6.70;;;;;;;19.54;99.16;94076.33;1682294;85;21169;-49
2022/08/22 05:16:36;;;;;;;9.70;6.37;;;;;;;19.59;98.72;94073.47;1673426;85;21471;-49
2022/08/22 05:19:12;;;;;;;9.45;6.20;;;;;;;19.65;98.79;94082.56;1671849;85;20971;-49
2022/08/22 05:21:41;;;;;;;11.65;7.47;;;;;;;19.69;97.99;94080.24;1664581;85;21081;-49
2022/08/22 05:24:20;;;;;;;9.88;6.80;;;;;;;19.75;97.56;94087.17;1663059;85;21058;-49
2022/08/22 05:26:51;;;;;;;10.38;7.28;;;;;;;19.74;96.75;94083.61;1666743;85;21070;-50
2022/08/22 05:29:22;;;;;;;9.48;7.35;;;;;;;19.71;96.57;94084.66;1650410;85;21077;-49
2022/08/22 05:31:55;;;;;;;8.55;7.75;;;;;;;19.75;96.53;94086.52;1680949;85;20987;-50
2022/08/22 05:34:27;;;;;;;11.15;7.78;;;;;;;19.82;96.23;94078.98;1665362;85;21003;-49
2022/08/22 05:37:19;;;;;;;9.93;6.95;;;;;;;19.85;95.28;94084.91;1670373;85;21204;-49
2022/08/22 05:39:49;;;;;;;;;;;;;;;19.84;94.75;94091.77;1652014;84;21278;-49
2022/08/22 05:42:31;;;;;;;10.00;6.15;;;;;;;19.89;95.02;94098.59;1647160;85;20206;-50
2022/08/22 05:45:05;;;;;;;13.88;7.28;;;;;;;19.95;94.95;94096.48;1682696;84;21088;-51
2022/08/22 05:47:44;;;;;;;9.68;6.78;;;;;;;19.98;94.78;94103.19;1649896;84;21117;-50
2022/08/22 05:50:22;;;;;;;9.60;6.75;;;;;;;19.99;94.73;94101.91;1650837;84;21039;-52
2022/08/22 05:53:07;;;;;;;10.08;6.80;;;;;;;20.00;94.20;94104.81;1610551;86;21732;-49
2022/08/22 05:55:43;;;;;;;9.70;8.13;;;;;;;20.01;93.63;94102.14;1645091;84;21095;-50
2022/08/22 05:58:51;;;;;;;12.00;8.20;;;;;;;19.97;93.74;94091.91;1664069;83;21339;-51
2022/08/22 06:01:39;;;;;;;9.50;7.08;;;;;;;19.99;93.95;94099.11;1667612;84;22215;-50
2022/08/22 06:04:48;;;;;;;11.10;5.62;;;;;;;19.99;93.56;94104.70;1647359;85;20975;-55
2022/08/22 06:07:30;;;;;;;9.75;6.60;;;;;;;20.01;93.12;94095.16;1663493;83;21164;-52
2022/08/22 06:10:06;;;;;;;7.00;5.50;;;;;;;20.04;92.62;94103.91;1644591;84;21140;-51
2022/08/22 06:12:56;;;;;;;7.53;5.87;;;;;;;20.04;92.33;94100.34;1649434;83;20994;-53
2022/08/22 06:15:35;;;;;;;6.60;5.10;;;;;;;20.05;91.98;94104.02;1659932;83;21490;-54
2022/08/22 06:18:06;;;;;;;6.72;5.58;;;;;;;20.09;91.85;94103.08;1650630;85;21215;-51
2022/08/22 06:20:47;;;;;;;16.67;7.25;;;;;;;20.13;91.87;94102.92;1670404;84;21141;-56
2022/08/22 06:23:19;;;;;;;14.13;7.03;;;;;;;20.18;91.47;94117.45;1657073;83;21460;-56
2022/08/22 06:25:47;;;;;;;7.37;6.17;;;;;;;20.23;91.27;94118.69;1648456;84;21079;-57
2022/08/22 06:28:20;;;;;;;6.40;5.55;;;;;;;20.24;90.81;94111.19;1657498;84;21083;-55
2022/08/22 06:30:47;;;;;;;;;;;;;;;20.23;90.38;94113.09;1669881;82;21116;-53
2022/08/22 06:33:18;;;;;;;10.40;5.90;;;;;;;20.24;90.46;94112.59;1670016;85;21199;-55
2022/08/22 06:39:12;;;;;;;7.83;5.62;;;;;;;20.27;90.49;94115.72;1665080;83;21299;-57
2022/08/22 06:41:50;;;;;;;8.30;5.53;;;;;;;20.31;90.30;94114.78;1670685;83;21098;-60
2022/08/22 06:44:23;;;;;;;8.43;4.50;;;;;;;20.34;89.89;94111.59;1642177;85;21417;-52
2022/08/22 06:46:53;;;;;;;8.43;4.85;;;;;;;20.35;89.34;94120.09;1650189;83;21893;-52
2022/08/22 06:49:21;;;;;;;7.83;6.00;;;;;;;20.33;89.38;94124.78;1639397;84;21233;-51
2022/08/22 06:51:50;;;;;;;10.40;5.75;;;;;;;20.35;89.38;94116.63;1638648;85;22312;-53
2022/08/22 06:54:21;;;;;;;9.50;4.87;;;;;;;20.40;89.26;94117.20;1664944;83;21109;-52
2022/08/22 06:56:49;;;;;;;6.15;5.03;;;;;;;20.47;89.43;94120.05;1665285;82;21550;-51
2022/08/22 06:59:20;;;;;;;7.35;4.50;;;;;;;20.53;89.47;94117.97;1641107;84;21079;-53
2022/08/22 07:01:57;;;;;;;8.38;5.75;;;;;;;20.62;88.65;94130.94;1678370;83;21054;-55
2022/08/22 07:04:25;;;;;;;8.63;5.22;;;;;;;20.65;87.63;94122.89;1662170;83;21339;-53
2022/08/22 07:06:55;;;;;;;9.85;5.12;;;;;;;20.66;87.29;94119.44;1650048;85;21042;-49
2022/08/22 07:09:31;;;;;;;6.87;5.03;;;;;;;20.71;87.47;94117.23;1666870;83;21101;-50
2022/08/22 07:12:05;;;;;;;9.43;4.97;;;;;;;20.84;87.68;94124.32;1687830;82;21240;-50
2022/08/22 07:14:43;;;;;;;5.78;4.70;;;;;;;20.98;87.28;94118.30;1674915;83;21540;-51
2022/08/22 07:17:26;;;;;;;9.38;5.33;;;;;;;21.12;86.63;94127.51;1666504;83;21149;-52
2022/08/22 07:19:58;;;;;;;11.08;7.42;;;;;;;21.20;86.00;94124.20;1649204;84;21003;-51
2022/08/22 07:22:30;;;;;;;7.58;5.28;;;;;;;21.26;85.40;94123.50;1658380;83;21017;-50
2022/08/22 07:25:07;;;;;;;;;;;;;;;21.33;84.94;94127.81;1678184;83;21275;-52
2022/08/22 07:28:05;;;;;;;13.25;6.12;;;;;;;21.42;84.18;94126.66;1695309;83;20654;-50
2022/08/22 07:30:41;;;;;;;9.13;5.70;;;;;;;21.45;83.66;94127.02;1679523;84;22028;-51
2022/08/22 07:33:20;;;;;;;12.35;5.12;;;;;;;21.49;82.72;94126.06;1664910;84;21013;-52
2022/08/22 07:35:50;;;;;;;10.68;5.75;;;;;;;21.56;82.40;94126.20;1686111;83;21619;-55
2022/08/22 07:38:42;;;;;;;6.40;5.30;;;;;;;21.67;82.74;94126.70;1655132;83;21257;-51
2022/08/22 07:41:18;;;;;;;5.03;4.53;;;;;;;21.82;83.37;94124.90;1666931;82;21058;-51
2022/08/22 07:44:16;;;;;;;6.78;5.08;;;;;;;21.97;81.34;94121.59;1662340;82;21049;-52
2022/08/22 07:46:55;;;;;;;13.95;5.62;;;;;;;22.00;80.91;94126.14;1643518;84;21101;-51
2022/08/22 07:49:37;;;;;;;7.17;4.90;;;;;;;22.01;81.09;94126.25;1671275;83;21560;-52
2022/08/22 07:52:10;;;;;;;7.58;5.75;;;;;;;21.99;80.92;94126.77;1661092;83;21788;-51
2022/08/22 07:54:56;;;;;;;5.53;5.00;;;;;;;21.93;80.85;94123.95;1636266;85;21015;-52
2022/08/22 07:57:33;;;;;;;7.47;5.30;;;;;;;21.89;80.97;94120.72;1646077;85;21183;-55
2022/08/22 08:00:09;;;;;;;12.37;5.12;;;;;;;21.91;81.43;94122.34;1651398;83;21136;-54
2022/08/22 08:02:37;;;;;;;9.80;5.65;;;;;;;21.98;81.55;94132.93;1672387;83;21063;-51
2022/08/22 08:05:05;;;;;;;9.33;5.72;;;;;;;22.09;81.36;94124.42;1653924;84;21784;-52
2022/08/22 08:07:33;;;;;;;9.55;4.92;;;;;;;22.20;80.76;94126.27;1661753;84;21503;-51
2022/08/22 08:10:05;;;;;;;6.08;5.47;;;;;;;22.28;80.32;94122.28;1666976;84;21125;-51
2022/08/22 08:12:39;;;;;;;6.92;5.87;;;;;;;22.33;80.15;94121.41;1657859;85;21022;-50
2022/08/22 08:15:18;;;;;;;7.67;5.40;;;;;;;22.41;80.06;94129.34;1662581;83;21055;-51
2022/08/22 08:17:47;;;;;;;11.15;6.70;;;;;;;22.50;79.62;94126.75;1646870;84;21191;-52
2022/08/22 08:20:19;;;;;;;10.20;5.70;;;;;;;22.58;79.25;94125.56;1679942;83;21082;-53
2022/08/22 08:22:46;;;;;;;6.08;5.47;;;;;;;22.68;78.50;94126.63;1665686;85;21011;-50
2022/08/22 08:25:22;;;;;;;9.03;5.80;;;;;;;22.76;78.13;94134.51;1649732;85;21094;-50
2022/08/22 08:30:54;;;;;;;20.97;6.12;;;;;;;22.91;77.16;94129.73;1662467;83;21294;-52
2022/08/22 08:33:24;;;;;;;10.30;6.53;;;;;;;23.03;77.26;94122.60;1673628;83;21112;-51
2022/08/22 08:36:02;;;;;;;15.75;6.90;;;;;;;23.18;77.30;94112.33;1646661;84;21185;-50
2022/08/22 08:38:44;;;;;;;8.60;6.00;;;;;;;23.34;77.08;94120.26;1593153;87;21111;-56
2022/08/22 08:41:23;;;;;;;10.72;6.45;;;;;;;23.49;76.46;94114.17;1624648;86;21069;-49
2022/08/22 08:44:05;;;;;;;7.05;5.78;;;;;;;23.63;75.88;94115.63;1632821;85;21316;-52
2022/08/22 08:47:15;;;;;;;9.58;5.50;;;;;;;23.76;76.29;94111.34;1672724;82;21482;-49
2022/08/22 08:50:00;;;;;;;9.13;5.65;;;;;;;23.93;75.43;94103.28;1614305;84;21133;-56
2022/08/22 08:53:05;;;;;;;8.45;5.75;;;;;;;24.10;74.09;94110.64;1674559;83;21061;-53
2022/08/22 08:55:47;;;;;;;10.93;5.83;;;;;;;24.28;73.22;94107.61;1632498;86;21038;-53
2022/08/22 08:58:53;;;;;;;12.78;6.53;;;;;;;24.41;72.20;94101.86;1645849;84;21267;-52
2022/08/22 09:01:53;;;;;;;10.30;6.78;;;;;;;24.49;72.01;94107.55;1640352;84;21036;-52
2022/08/22 09:04:40;;;;;;;6.45;5.67;;;;;;;24.54;72.10;94105.28;1647018;84;21564;-56
2022/08/22 09:07:47;;;;;;;10.15;6.28;;;;;;;24.61;71.79;94106.70;1649853;85;21012;-51
2022/08/22 09:10:37;;;;;;;14.45;6.80;;;;;;;24.59;71.81;94102.29;1667772;84;21121;-53
2022/08/22 09:13:34;;;;;;;7.62;6.83;;;;;;;24.63;72.61;94097.73;1637154;85;21759;-51
2022/08/22 09:16:24;;;;;;;10.08;6.50;;;;;;;24.73;72.27;94088.88;1646405;85;22316;-53
2022/08/22 09:19:09;;;;;;;10.45;6.65;;;;;;;24.77;72.16;94094.90;1658248;84;21221;-55
2022/08/22 09:22:11;;;;;;;8.78;6.85;;;;;;;24.77;72.58;94087.86;1637472;85;21167;-53
2022/08/22 09:24:58;;;;;;;19.00;7.97;;;;;;;24.82;72.23;94086.30;1657550;85;21148;-53
2022/08/22 09:27:52;;;;;;;11.50;6.85;;;;;;;24.91;72.56;94087.84;1652744;84;21172;-54
2022/08/22 09:30:22;;;;;;;10.05;7.42;;;;;;;25.10;71.41;94083.41;1659413;83;22122;-53
2022/08/22 09:33:06;;;;;;;13.20;7.30;;;;;;;25.31;71.14;94081.92;1650012;84;22639;-55
2022/08/22 09:36:03;;;;;;;10.88;7.47;;;;;;;25.53;71.94;94076.99;1649055;84;21442;-55
2022/08/22 09:38:43;;;;;;;10.68;7.00;;;;;;;25.76;70.51;94082.00;1674282;83;21172;-53
2022/08/22 09:41:32;;;;;;;8.73;6.83;;;;;;;25.85;69.71;94070.22;1645360;85;21300;-57
2022/08/22 09:44:19;;;;;;;8.60;7.08;;;;;;;25.96;69.12;94076.23;1654192;84;21074;-52
2022/08/22 09:47:00;;;;;;;9.35;7.10;;;;;;;26.15;68.07;94077.34;1614149;86;21361;-55
2022/08/22 09:49:37;;;;;;;9.90;7.10;;;;;;;26.45;67.69;94069.53;1610495;86;21134;-53
2022/08/22 09:52:25;;;;;;;17.12;7.78;;;;;;;26.73;67.11;94065.06;1593406;87;21047;-52
2022/08/22 09:55:03;;;;;;;8.63;6.90;;;;;;;26.95;66.12;94059.34;1650840;83;21270;-53
2022/08/22 09:57:42;;;;;;;8.58;6.53;;;;;;;27.18;65.07;94052.97;1664170;84;21050;-52
2022/08/22 10:00:24;;;;;;;9.85;7.08;;;;;;;27.41;64.08;94056.42;1663979;83;22292;-55
2022/08/22 10:03:13;;;;;;;13.95;6.87;;;;;;;27.69;63.11;94047.59;1628313;84;38694;-51
2022/08/22 10:06:04;;;;;;;11.48;7.15;;;;;;;28.04;61.75;94042.17;1635346;82;21226;-54
2022/08/22 10:08:52;;;;;;;7.70;6.83;;;;;;;28.35;61.22;94041.35;1677773;83;22559;-54
2022/08/22 10:11:30;;;;;;;10.98;7.15;;;;;;;28.65;61.21;94055.22;1663913;84;21943;-53
2022/08/22 10:14:17;;;;;;;8.58;6.67;;;;;;;28.97;59.68;94047.98;1660843;84;21207;-51
2022/08/22 10:17:20;;;;;;;8.18;7.28;;;;;;;29.27;58.05;94049.03;1667702;83;21050;-51
2022/08/22 10:19:56;;;;;;;9.33;6.72;;;;;;;29.44;56.65;94038.31;1645984;84;21002;-52
2022/08/22 10:22:31;;;;;;;11.05;7.10;;;;;;;29.33;56.17;94038.17;1675994;83;21451;-52
2022/08/22 10:25:36;;;;;;;14.50;6.30;;;;;;;29.32;56.40;94046.59;1666538;82;21521;-52
2022/08/22 10:28:33;;;;;;;8.83;6.83;;;;;;;29.16;55.94;94035.37;1666464;84;21129;-51
2022/08/22 10:31:09;;;;;;;12.20;7.20;;;;;;;29.21;55.52;94033.62;1650531;84;21110;-52
2022/08/22 10:33:50;;;;;;;9.53;6.83;;;;;;;28.97;55.83;94038.06;1658012;84;21097;-50
2022/08/22 10:36:41;;;;;;;11.95;7.28;;;;;;;28.75;56.55;94048.95;1680050;83;21135;-52
2022/08/22 10:39:12;;;;;;;9.03;6.60;;;;;;;28.33;57.30;94043.25;1655001;84;21071;-52
2022/08/22 10:42:27;;;;;;;11.90;7.35;;;;;;;28.01;59.12;94050.41;1669659;84;21035;-51
2022/08/22 10:45:21;;;;;;;8.58;6.92;;;;;;;27.73;59.59;94056.44;1659707;84;21077;-51
2022/08/22 10:48:09;;;;;;;11.73;7.72;;;;;;;27.32;60.97;94051.39;1655240;84;21043;-53
2022/08/22 10:50:44;;;;;;;8.33;7.33;;;;;;;27.02;61.79;94049.35;1636430;84;21382;-53
2022/08/22 10:53:41;;;;;;;9.03;7.22;;;;;;;26.79;62.75;94050.84;1656108;85;21746;-50
2022/08/22 10:56:30;;;;;;;9.58;7.10;;;;;;;26.67;63.15;94048.33;1656798;83;21271;-53
2022/08/22 10:59:31;;;;;;;10.82;7.90;;;;;;;26.60;63.13;94053.98;1645647;84;21247;-53
2022/08/22 11:02:37;;;;;;;11.78;7.90;;;;;;;26.58;63.22;94054.57;1668165;84;21033;-50
2022/08/22 11:05:30;;;;;;;8.35;7.40;;;;;;;26.75;63.82;94050.48;1622836;83;21893;-54
2022/08/22 11:08:38;;;;;;;13.62;7.25;;;;;;;27.21;63.00;94046.16;1677946;84;21109;-50
2022/08/22 11:11:36;;;;;;;9.75;7.92;;;;;;;27.71;62.41;94052.66;1662973;83;21040;-50
2022/08/22 11:14:41;;;;;;;9.60;6.78;;;;;;;28.36;59.39;94047.09;1675202;83;21050;-54
2022/08/22 11:17:23;;;;;;;9.73;6.95;;;;;;;28.85;58.19;94051.22;1655143;83;21092;-52
2022/08/22 11:20:18;;;;;;;10.58;7.08;;;;;;;29.13;55.81;94051.40;1660495;84;21197;-56
2022/08/22 11:23:20;;;;;;;11.28;8.45;;;;;;;29.07;54.99;94043.80;1663320;83;20896;-52
2022/08/22 11:26:42;;;;;;;10.45;8.03;;;;;;;29.27;55.01;94049.69;1661664;84;21087;-54
2022/08/22 11:29:19;;;;;;;10.70;7.70;;;;;;;29.70;54.53;94051.11;1665992;84;22169;-51
2022/08/22 11:32:13;;;;;;;7.67;6.72;;;;;;;29.88;52.86;94037.62;1664511;84;21104;-50
2022/08/22 11:35:24;;;;;;;11.03;6.08;;;;;;;29.93;52.26;94038.09;1665012;84;21279;-50
2022/08/22 11:38:03;;;;;;;9.55;6.05;;;;;;;29.76;51.64;94044.52;1666267;84;21161;-51
2022/08/22 11:40:38;;;;;;;9.60;6.37;;;;;;;29.57;51.79;94043.65;1670965;83;21037;-53
2022/08/22 11:43:24;;;;;;;9.05;6.30;;;;;;;29.34;51.22;94031.84;1664631;83;21540;-52
2022/08/22 11:45:55;;;;;;;10.00;6.42;;;;;;;29.53;52.07;94034.83;1667328;83;21137;-51
2022/08/22 11:48:37;;;;;;;8.15;5.60;;;;;;;29.46;51.39;94022.91;1670432;83;21968;-52
2022/08/22 11:51:10;;;;;;;7.50;6.05;;;;;;;29.27;51.92;94023.52;1668474;83;21034;-50
2022/08/22 11:53:54;;;;;;;6.37;5.20;;;;;;;28.89;52.33;94030.98;1682280;83;20974;-50
2022/08/22 11:56:30;;;;;;;8.15;6.30;;;;;;;28.53;52.85;94035.03;1659656;84;21062;-50
2022/08/22 11:59:06;;;;;;;14.30;6.45;;;;;;;28.15;53.30;94042.45;1666949;83;21462;-55
2022/08/22 12:01:41;;;;;;;17.77;7.33;;;;;;;27.82;54.15;94034.63;1660282;84;21237;-58
2022/08/22 12:04:17;;;;;;;14.58;7.40;;;;;;;27.57;55.24;94035.90;1642972;85;22010;-50
2022/08/22 12:06:58;;;;;;;8.45;6.40;;;;;;;27.41;56.04;94032.40;1642847;85;21050;-56
2022/08/22 12:09:50;;;;;;;9.50;5.97;;;;;;;27.34;57.12;94031.03;1634743;85;21901;-57
2022/08/22 12:12:32;;;;;;;9.98;6.33;;;;;;;27.93;58.82;94015.76;1669860;83;21879;-56
2022/08/22 12:15:14;;;;;;;9.18;6.05;;;;;;;29.17;56.26;94006.38;1680320;83;21279;-61
2022/08/22 12:18:02;;;;;;;;;;;;;;;30.41;51.24;94009.22;1658644;83;21231;-56
2022/08/22 12:21:13;;;;;;;7.20;5.20;;;;;;;31.56;49.20;94012.15;1675176;83;20175;-55
2022/08/22 12:24:18;;;;;;;11.93;5.78;;;;;;;32.62;47.36;93999.73;1669918;84;21010;-56
2022/08/22 12:27:07;;;;;;;17.40;5.83;;;;;;;33.88;43.35;93993.84;1665033;83;21140;-56
2022/08/22 12:30:10;;;;;;;6.15;4.62;;;;;;;34.98;41.05;93991.36;1668091;83;21279;-56
2022/08/22 12:33:00;;;;;;;9.28;4.90;;;;;;;35.33;38.90;94002.77;1635904;86;21045;-58
2022/08/22 12:36:07;;;;;;;8.83;4.75;;;;;;;35.07;39.47;94002.64;1637442;83;21041;-57
2022/08/22 12:39:00;;;;;;;8.05;4.17;;;;;;;34.57;39.72;93995.36;1658179;83;21006;-56
2022/08/22 12:42:11;;;;;;;9.75;5.22;;;;;;;33.64;40.83;93998.73;1666025;84;21046;-55
2022/08/22 12:45:09;;;;;;;14.33;5.53;;;;;;;32.74;42.33;94006.28;1666432;84;21462;-58
2022/08/22 12:48:03;;;;;;;9.60;4.83;;;;;;;31.71;44.14;94008.23;1654276;84;21091;-56
2022/08/22 12:51:04;;;;;;;13.08;5.12;;;;;;;30.84;45.66;94008.23;1609017;87;21498;-56
2022/08/22 12:54:12;;;;;;;14.68;5.97;;;;;;;30.13;47.17;93996.38;1645747;84;21054;-57
2022/08/22 12:57:28;;;;;;;7.62;4.72;;;;;;;29.93;48.20;94002.62;1675245;82;21199;-55
2022/08/22 13:00:09;;;;;;;13.55;4.15;;;;;;;30.54;48.01;93998.83;1673784;83;21565;-56
2022/08/22 13:02:38;;;;;;;10.95;5.35;;;;;;;31.36;45.68;93996.48;1662883;83;21193;-58